Time;durP1;ratioP1;P1;durP2;ratioP2;P2;SDS_P1;SDS_P2;PMS_P1;PMS_P2;Temp;Humidity;BMP_temperature;BMP_pressure;BME280_temperature;BME280_humidity;BME280_pressure;Samples;Min_cycle;Max_cycle;Signal;HPM_P1;HPM_P2
2022/06/08 00:00:04;;;;;;;;;;;;;;;24.52;25.11;100365.66;5079064;28;20339;-68
2022/06/08 00:02:30;;;;;;;;;;;;;;;24.51;25.44;100367.56;5078909;28;19942;-68
2022/06/08 00:04:55;;;;;;;;;;;;;;;24.50;25.39;100365.94;5097075;28;20332;-68
2022/06/08 00:07:20;;;;;;;;;;;;;;;24.49;25.44;100361.59;5096780;28;20007;-68
2022/06/08 00:09:45;;;;;;;;;;;;;;;24.50;25.49;100363.19;5097050;28;20255;-68
2022/06/08 00:12:11;;;;;;;;;;;;;;;24.48;25.40;100362.66;5097262;28;20003;-68
2022/06/08 00:14:36;;;;;;;;;;;;;;;24.47;25.50;100358.28;5097043;28;19924;-68
2022/06/08 00:17:01;;;;;;;;;;;;;;;24.47;25.33;100350.09;5096442;28;19924;-68
2022/06/08 00:19:27;;;;;;;;;;;;;;;24.48;25.45;100356.41;5096881;28;19916;-68
2022/06/08 00:21:52;;;;;;;;;;;;;;;24.47;25.51;100355.56;5097023;28;20286;-68
2022/06/08 00:24:19;;;;;;;;;;;;;;;24.46;25.54;100343.03;5096696;28;19916;-67
2022/06/08 00:26:44;;;;;;;;;;;;;;;24.47;25.30;100341.09;5096364;28;19927;-68
2022/06/08 00:29:09;;;;;;;;;;;;;;;24.46;25.57;100337.56;5096788;28;19916;-68
2022/06/08 00:31:35;;;;;;;;;;;;;;;24.47;25.53;100338.38;5096288;28;19917;-70
2022/06/08 00:34:01;;;;;;;;;;;;;;;24.45;25.37;100341.38;5096260;28;19916;-67
2022/06/08 00:36:26;;;;;;;;;;;;;;;24.46;25.49;100332.09;5096197;28;19922;-68
2022/06/08 00:38:51;;;;;;;;;;;;;;;24.46;25.69;100337.56;5096119;28;19923;-68
2022/06/08 00:41:28;;;;;;;;;;;;;;;24.45;25.66;100326.91;5096414;28;19916;-68
2022/06/08 00:43:53;;;;;;;;;;;;;;;24.44;25.74;100322.53;5096334;28;19917;-68
2022/06/08 00:46:19;;;;;;;;;;;;;;;24.44;25.72;100323.38;5096009;28;19923;-68
2022/06/08 00:48:49;;;;;;;;;;;;;;;24.45;25.65;100314.06;5096011;28;19919;-68
2022/06/08 00:51:15;;;;;;;;;;;;;;;24.43;25.60;100316.25;5078128;28;19919;-68
2022/06/08 00:53:43;;;;;;;;;;;;;;;24.43;25.65;100310.00;5096115;28;19961;-68
2022/06/08 00:56:10;;;;;;;;;;;;;;;24.43;25.75;100307.25;5096022;28;20019;-68
2022/06/08 00:58:36;;;;;;;;;;;;;;;24.43;25.79;100299.88;5096382;28;19985;-67
2022/06/08 01:01:01;;;;;;;;;;;;;;;24.42;25.93;100309.16;5077631;28;20362;-67
2022/06/08 01:03:26;;;;;;;;;;;;;;;24.42;25.62;100309.16;5077926;28;19954;-67
2022/06/08 01:05:53;;;;;;;;;;;;;;;24.41;25.85;100313.00;5095939;28;19971;-67
2022/06/08 01:08:19;;;;;;;;;;;;;;;24.42;25.92;100308.34;5076785;28;20394;-68
2022/06/08 01:10:45;;;;;;;;;;;;;;;24.41;25.78;100307.53;5095852;28;19916;-68
2022/06/08 01:13:10;;;;;;;;;;;;;;;24.42;25.82;100314.63;5077575;28;19916;-68
2022/06/08 01:15:38;;;;;;;;;;;;;;;24.41;25.96;100307.53;5095702;28;20011;-68
2022/06/08 01:18:03;;;;;;;;;;;;;;;24.40;25.94;100311.34;5077634;28;19916;-68
2022/06/08 01:20:29;;;;;;;;;;;;;;;24.40;26.05;100308.63;5095698;28;20350;-66
2022/06/08 01:22:54;;;;;;;;;;;;;;;24.41;25.88;100312.19;5095161;28;19958;-67
2022/06/08 01:25:21;;;;;;;;;;;;;;;24.40;25.79;100303.16;5087317;28;19926;-68
2022/06/08 01:28:04;;;;;;;;;;;;;;;24.39;26.05;100304.28;5074819;28;19916;-68
2022/06/08 01:30:30;;;;;;;;;;;;;;;24.38;26.12;100292.50;5074955;28;20375;-67
2022/06/08 01:33:17;;;;;;;;;;;;;;;24.37;26.02;100296.38;5075016;28;19917;-68
2022/06/08 01:35:49;;;;;;;;;;;;;;;24.37;25.92;100290.91;5056873;28;19920;-68
2022/06/08 01:38:27;;;;;;;;;;;;;;;24.38;26.06;100286.25;5056791;28;19916;-68
2022/06/08 01:41:10;;;;;;;;;;;;;;;24.37;26.02;100290.91;5075052;28;19920;-69
2022/06/08 01:43:36;;;;;;;;;;;;;;;24.36;26.00;100288.44;5074975;28;19916;-68
2022/06/08 01:46:08;;;;;;;;;;;;;;;24.35;26.02;100287.66;5074733;28;19920;-67
2022/06/08 01:48:46;;;;;;;;;;;;;;;24.36;25.70;100288.44;5057026;28;19916;-67
2022/06/08 01:51:20;;;;;;;;;;;;;;;24.35;25.75;100295.84;5057205;28;20226;-67
2022/06/08 01:53:54;;;;;;;;;;;;;;;24.35;25.74;100286.81;5074478;28;19916;-68
2022/06/08 01:56:27;;;;;;;;;;;;;;;24.35;25.55;100295.84;5074436;28;19999;-68
2022/06/08 01:59:11;;;;;;;;;;;;;;;24.35;25.55;100292.25;5056679;28;19920;-68
2022/06/08 02:01:44;;;;;;;;;;;;;;;24.34;25.62;100282.47;5074383;28;20437;-68
2022/06/08 02:04:28;;;;;;;;;;;;;;;24.35;25.68;100292.25;5074548;28;19917;-68
2022/06/08 02:07:02;;;;;;;;;;;;;;;24.35;25.44;100284.06;5074612;28;19948;-68
2022/06/08 02:09:33;;;;;;;;;;;;;;;24.34;25.83;100282.47;5074179;28;19916;-68
2022/06/08 02:12:00;;;;;;;;;;;;;;;24.34;25.83;100277.00;5074390;28;19924;-68
2022/06/08 02:14:27;;;;;;;;;;;;;;;24.34;25.90;100263.34;5056490;28;19997;-68
2022/06/08 02:16:54;;;;;;;;;;;;;;;24.34;25.90;100263.34;5074084;28;20030;-68
2022/06/08 02:19:20;;;;;;;;;;;;;;;24.33;25.68;100251.59;5074010;28;19916;-68
2022/06/08 02:21:47;;;;;;;;;;;;;;;24.35;25.67;100270.41;5074382;28;20019;-68
2022/06/08 02:24:17;;;;;;;;;;;;;;;24.34;25.38;100263.34;5056322;28;19925;-68
2022/06/08 02:26:43;;;;;;;;;;;;;;;24.32;25.18;100260.09;5075147;28;19924;-68
2022/06/08 02:29:09;;;;;;;;;;;;;;;24.33;25.28;100261.69;5094234;28;19916;-68
2022/06/08 02:31:35;;;;;;;;;;;;;;;24.33;25.15;100261.69;5094386;28;19924;-68
2022/06/08 02:36:49;;;;;;;;;;;;;;;24.31;24.81;100250.25;5094485;28;20362;-68
2022/06/08 02:39:22;;;;;;;;;;;;;;;24.30;24.65;100240.41;5076047;28;20291;-68
2022/06/08 02:41:49;;;;;;;;;;;;;;;24.30;24.77;100235.78;5093966;28;19969;-68
2022/06/08 02:44:16;;;;;;;;;;;;;;;24.30;24.65;100234.94;5094188;28;19969;-68
2022/06/08 02:46:47;;;;;;;;;;;;;;;24.29;24.49;100247.78;5076133;28;19916;-68
2022/06/08 02:49:12;;;;;;;;;;;;;;;24.30;24.41;100248.59;5094089;28;20003;-68
2022/06/08 02:51:40;;;;;;;;;;;;;;;24.29;24.22;100239.59;5093784;28;19959;-68
2022/06/08 02:54:06;;;;;;;;;;;;;;;24.31;24.16;100236.59;5093848;28;20359;-68
2022/06/08 02:56:42;;;;;;;;;;;;;;;24.30;23.71;100226.75;5094557;28;19920;-68
2022/06/08 02:59:19;;;;;;;;;;;;;;;24.29;23.90;100233.34;5075619;28;19916;-67
2022/06/08 03:02:01;;;;;;;;;;;;;;;24.29;23.59;100228.69;5094083;28;19995;-67
2022/06/08 03:04:28;;;;;;;;;;;;;;;24.31;23.63;100229.22;5075603;28;19916;-67
2022/06/08 03:06:55;;;;;;;;;;;;;;;24.35;23.40;100226.72;5093631;28;19963;-68
2022/06/08 03:09:20;;;;;;;;;;;;;;;24.37;23.55;100228.09;5075851;28;19950;-68
2022/06/08 03:11:47;;;;;;;;;;;;;;;24.39;23.28;100222.34;5075701;28;19951;-68
2022/06/08 03:14:13;;;;;;;;;;;;;;;24.42;23.28;100221.75;5075604;28;19969;-68
2022/06/08 03:16:40;;;;;;;;;;;;;;;24.45;23.29;100221.19;5093589;28;19924;-67
2022/06/08 03:19:05;;;;;;;;;;;;;;;24.47;23.18;100213.53;5093324;28;19916;-67
2022/06/08 03:21:31;;;;;;;;;;;;;;;24.51;23.12;100219.25;5093517;28;19922;-68
2022/06/08 03:23:56;;;;;;;;;;;;;;;24.54;23.09;100229.63;5093695;28;19939;-68
2022/06/08 03:26:21;;;;;;;;;;;;;;;24.53;22.71;100226.06;5093397;28;19932;-68
2022/06/08 03:28:47;;;;;;;;;;;;;;;24.57;22.44;100217.31;5093313;28;19916;-68
2022/06/08 03:31:12;;;;;;;;;;;;;;;24.58;22.51;100218.94;5095650;28;20018;-68
2022/06/08 03:33:37;;;;;;;;;;;;;;;24.62;22.56;100215.34;5097574;28;19923;-68
2022/06/08 03:36:02;;;;;;;;;;;;;;;24.63;22.42;100216.16;5097323;28;19924;-69
2022/06/08 03:38:28;;;;;;;;;;;;;;;24.67;22.28;100222.72;5097062;28;19917;-67
2022/06/08 03:40:53;;;;;;;;;;;;;;;24.70;22.26;100217.47;5097152;28;19916;-69
2022/06/08 03:43:18;;;;;;;;;;;;;;;24.72;22.10;100218.00;5097130;28;19916;-69
2022/06/08 03:45:44;;;;;;;;;;;;;;;24.76;22.04;100218.25;5097445;28;19999;-68
2022/06/08 03:48:10;;;;;;;;;;;;;;;24.77;21.99;100217.16;5079334;28;19995;-68
2022/06/08 03:50:35;;;;;;;;;;;;;;;24.79;21.82;100214.94;5097869;28;19962;-69
2022/06/08 03:53:02;;;;;;;;;;;;;;;24.82;21.76;100221.75;5097219;28;20277;-67
2022/06/08 03:55:27;;;;;;;;;;;;;;;24.85;21.76;100219.28;5097169;28;19923;-68
2022/06/08 03:57:53;;;;;;;;;;;;;;;24.87;21.55;100219.81;5096892;28;19916;-68
2022/06/08 04:00:18;;;;;;;;;;;;;;;24.89;21.78;100222.25;5096837;28;19920;-69
2022/06/08 04:02:44;;;;;;;;;;;;;;;24.87;21.66;100221.69;5078869;28;19916;-69
2022/06/08 04:05:09;;;;;;;;;;;;;;;24.91;21.81;100220.84;5096723;28;19916;-69
2022/06/08 04:07:34;;;;;;;;;;;;;;;24.95;21.60;100223.00;5096949;28;20018;-69
2022/06/08 04:10:00;;;;;;;;;;;;;;;24.96;21.63;100221.88;5097071;28;19927;-69
2022/06/08 04:12:25;;;;;;;;;;;;;;;24.97;21.57;100220.81;5096660;28;19916;-69
2022/06/08 04:14:50;;;;;;;;;;;;;;;24.99;21.32;100221.31;5096660;28;19919;-68
2022/06/08 04:17:16;;;;;;;;;;;;;;;25.00;21.20;100221.03;5096794;28;19920;-69
2022/06/08 04:19:41;;;;;;;;;;;;;;;25.01;21.23;100227.31;5096838;28;19994;-69
2022/06/08 04:22:06;;;;;;;;;;;;;;;25.02;21.25;100223.47;5096358;28;19962;-69
2022/06/08 04:24:31;;;;;;;;;;;;;;;25.05;21.42;100231.13;5096347;28;19920;-69
2022/06/08 04:26:57;;;;;;;;;;;;;;;25.06;21.23;100225.38;5096632;28;20402;-69
2022/06/08 04:29:22;;;;;;;;;;;;;;;25.09;21.46;100226.69;5096050;28;19928;-70
2022/06/08 04:31:47;;;;;;;;;;;;;;;25.11;21.46;100240.88;5096110;28;20022;-69
2022/06/08 04:34:13;;;;;;;;;;;;;;;25.14;21.25;100243.03;5096136;28;19920;-69
2022/06/08 04:36:38;;;;;;;;;;;;;;;25.12;21.60;100246.06;5096112;28;19916;-69
2022/06/08 04:39:04;;;;;;;;;;;;;;;25.11;21.74;100249.09;5096118;28;19920;-69
2022/06/08 04:41:30;;;;;;;;;;;;;;;25.12;21.89;100243.31;5095296;28;19924;-71
2022/06/08 04:43:55;;;;;;;;;;;;;;;25.17;22.01;100245.22;5095171;28;19969;-69
2022/06/08 04:46:20;;;;;;;;;;;;;;;25.17;22.32;100247.94;5095891;28;20016;-70
2022/06/08 04:48:46;;;;;;;;;;;;;;;25.18;22.50;100244.13;5095927;28;20362;-69
2022/06/08 04:51:12;;;;;;;;;;;;;;;25.20;22.64;100247.38;5095751;28;20409;-70
2022/06/08 04:53:38;;;;;;;;;;;;;;;25.20;23.06;100241.91;5095608;28;20051;-70
2022/06/08 04:56:03;;;;;;;;;;;;;;;25.22;23.04;100234.22;5096573;28;20251;-69
2022/06/08 04:58:28;;;;;;;;;;;;;;;25.26;23.19;100232.56;5095716;28;20215;-69
2022/06/08 05:00:54;;;;;;;;;;;;;;;25.27;23.21;100231.47;5095629;28;19922;-70
2022/06/08 05:03:19;;;;;;;;;;;;;;;25.28;23.22;100233.09;5095549;28;19959;-69
2022/06/08 05:05:45;;;;;;;;;;;;;;;25.26;23.86;100218.06;5095623;28;19963;-69
2022/06/08 05:08:10;;;;;;;;;;;;;;;25.29;24.07;100212.03;5095657;28;19916;-69
2022/06/08 05:10:36;;;;;;;;;;;;;;;25.29;24.19;100221.03;5095654;28;20330;-70
2022/06/08 05:13:01;;;;;;;;;;;;;;;25.38;24.22;100214.94;5095259;28;19977;-69
2022/06/08 05:15:30;;;;;;;;;;;;;;;25.41;24.87;100212.44;5095413;28;19928;-69
2022/06/08 05:17:55;;;;;;;;;;;;;;;25.39;25.07;100217.38;5094886;28;20348;-69
2022/06/08 05:20:21;;;;;;;;;;;;;;;25.42;24.88;100218.72;5095117;28;19967;-70
2022/06/08 05:22:46;;;;;;;;;;;;;;;25.43;25.08;100217.63;5095340;28;19916;-70
2022/06/08 05:25:13;;;;;;;;;;;;;;;25.40;25.28;100213.53;5094604;28;20296;-70
2022/06/08 05:27:38;;;;;;;;;;;;;;;25.45;25.41;100207.19;5095051;28;19923;-70
2022/06/08 05:30:04;;;;;;;;;;;;;;;25.45;25.41;100198.97;5094746;28;19916;-70
2022/06/08 05:32:29;;;;;;;;;;;;;;;25.52;25.50;100198.63;5094526;28;19920;-69
2022/06/08 05:34:55;;;;;;;;;;;;;;;25.53;25.76;100198.34;5077841;28;19928;-70
2022/06/08 05:37:20;;;;;;;;;;;;;;;25.45;26.27;100193.50;5073883;28;19916;-70
2022/06/08 05:39:46;;;;;;;;;;;;;;;25.53;26.30;100187.41;5074567;28;19924;-70
2022/06/08 05:42:11;;;;;;;;;;;;;;;25.53;26.62;100178.38;5073995;28;19921;-71
2022/06/08 05:44:36;;;;;;;;;;;;;;;25.56;26.70;100173.13;5074266;28;19924;-68
2022/06/08 05:47:03;;;;;;;;;;;;;;;25.59;26.72;100169.00;5056595;28;20354;-68
2022/06/08 05:49:28;;;;;;;;;;;;;;;25.62;26.78;100160.19;5074849;28;19927;-68
2022/06/08 05:51:56;;;;;;;;;;;;;;;25.49;26.76;100156.25;5073948;28;20331;-69
2022/06/08 05:54:21;;;;;;;;;;;;;;;25.53;26.92;100151.03;5073707;28;19934;-68
2022/06/08 05:56:46;;;;;;;;;;;;;;;25.59;26.75;100150.63;5075029;28;19917;-69
2022/06/08 05:59:12;;;;;;;;;;;;;;;25.59;26.62;100149.84;5076737;28;20009;-70
2022/06/08 06:01:37;;;;;;;;;;;;;;;25.56;26.79;100143.03;5075393;28;20002;-69
2022/06/08 06:04:05;;;;;;;;;;;;;;;25.67;26.42;100146.44;5074457;28;20007;-69
2022/06/08 06:06:31;;;;;;;;;;;;;;;25.71;26.39;100141.19;5074399;28;20007;-68
2022/06/08 06:08:57;;;;;;;;;;;;;;;25.71;26.44;100141.19;5057217;28;20281;-69
2022/06/08 06:11:22;;;;;;;;;;;;;;;25.76;26.03;100144.66;5056060;28;20393;-68
2022/06/08 06:13:47;;;;;;;;;;;;;;;25.76;26.36;100141.94;5073776;28;19974;-69
2022/06/08 06:16:12;;;;;;;;;;;;;;;25.79;26.40;100132.34;5073810;28;19948;-68
2022/06/08 06:18:38;;;;;;;;;;;;;;;25.80;26.48;100128.47;5073626;28;19962;-69
2022/06/08 06:21:03;;;;;;;;;;;;;;;25.74;26.66;100114.06;5056006;28;19923;-69
2022/06/08 06:23:29;;;;;;;;;;;;;;;25.84;26.15;100096.69;5055457;28;19932;-69
2022/06/08 06:25:54;;;;;;;;;;;;;;;25.86;26.22;100078.03;5085707;28;20315;-69
2022/06/08 06:28:19;;;;;;;;;;;;;;;25.85;26.46;100076.38;5093357;28;19920;-68
2022/06/08 06:30:44;;;;;;;;;;;;;;;25.82;26.48;100072.34;5093401;28;19923;-69
2022/06/08 06:33:12;;;;;;;;;;;;;;;25.86;26.32;100078.03;5093172;28;19922;-68
2022/06/08 06:35:38;;;;;;;;;;;;;;;25.84;26.50;100085.72;5076401;28;19927;-67
2022/06/08 06:38:03;;;;;;;;;;;;;;;25.84;26.61;100091.19;5093620;28;20286;-68
2022/06/08 06:40:28;;;;;;;;;;;;;;;25.86;26.79;100106.19;5094256;28;19969;-68
2022/06/08 06:42:54;;;;;;;;;;;;;;;25.84;26.60;100113.91;5093623;28;19985;-68
2022/06/08 06:45:19;;;;;;;;;;;;;;;25.85;26.77;100109.22;5093113;28;19919;-69
2022/06/08 06:47:44;;;;;;;;;;;;;;;25.90;26.71;100106.41;5093651;28;19923;-69
2022/06/08 06:50:10;;;;;;;;;;;;;;;25.94;26.82;100107.50;5093300;28;19928;-68
2022/06/08 06:52:35;;;;;;;;;;;;;;;25.82;27.02;100101.63;5076125;28;19916;-68
2022/06/08 06:55:01;;;;;;;;;;;;;;;25.82;27.14;100098.91;5093154;28;19923;-69
2022/06/08 06:57:26;;;;;;;;;;;;;;;25.89;27.05;100104.81;5093365;28;19916;-68
2022/06/08 06:59:51;;;;;;;;;;;;;;;25.89;26.95;100093.88;5093298;28;19920;-69
2022/06/08 07:02:18;;;;;;;;;;;;;;;25.90;27.08;100090.00;5093500;28;19923;-68
2022/06/08 07:04:43;;;;;;;;;;;;;;;25.91;27.23;100077.94;5092712;28;19916;-68
2022/06/08 07:07:09;;;;;;;;;;;;;;;25.88;27.22;100081.28;5092979;28;19923;-68
2022/06/08 07:09:34;;;;;;;;;;;;;;;25.93;26.83;100089.41;5075261;28;19927;-68
2022/06/08 07:11:59;;;;;;;;;;;;;;;25.91;27.51;100091.63;5093378;28;19923;-69
2022/06/08 07:14:24;;;;;;;;;;;;;;;25.89;27.55;100074.69;5093718;28;19920;-68
2022/06/08 07:16:51;;;;;;;;;;;;;;;25.93;27.35;100067.50;5093195;28;20014;-68
2022/06/08 07:19:17;;;;;;;;;;;;;;;25.89;27.34;100082.91;5092935;28;19916;-68
2022/06/08 07:21:42;;;;;;;;;;;;;;;25.95;27.30;100086.41;5093188;28;19922;-69
2022/06/08 07:24:07;;;;;;;;;;;;;;;25.95;27.21;100079.00;5093229;28;20004;-68
2022/06/08 07:26:33;;;;;;;;;;;;;;;25.94;27.94;100074.66;5074961;28;19920;-70
2022/06/08 07:28:58;;;;;;;;;;;;;;;25.97;27.94;100079.50;5093042;28;19916;-69
2022/06/08 07:31:24;;;;;;;;;;;;;;;25.97;27.54;100076.78;5093260;28;19923;-69
2022/06/08 07:33:49;;;;;;;;;;;;;;;26.01;27.72;100068.78;5093658;28;20312;-69
2022/06/08 07:36:15;;;;;;;;;;;;;;;25.94;27.65;100080.13;5093159;28;20323;-69
2022/06/08 07:38:40;;;;;;;;;;;;;;;25.94;27.72;100091.06;5075826;28;20011;-68
2022/06/08 07:41:05;;;;;;;;;;;;;;;25.97;27.88;100078.69;5093695;28;19916;-70
2022/06/08 07:43:33;;;;;;;;;;;;;;;25.99;27.67;100069.09;5075521;28;19956;-71
2022/06/08 07:45:58;;;;;;;;;;;;;;;25.99;27.65;100066.34;5093934;28;20344;-70
2022/06/08 07:51:08;;;;;;;;;;;;;;;26.02;27.92;100065.72;5093468;28;19942;-69
2022/06/08 07:53:34;;;;;;;;;;;;;;;26.02;27.93;100065.72;5092644;28;19916;-69
2022/06/08 07:55:59;;;;;;;;;;;;;;;26.07;27.92;100077.72;5093918;28;19917;-69
2022/06/08 07:58:25;;;;;;;;;;;;;;;26.05;28.03;100070.63;5093490;28;19917;-68
2022/06/08 08:00:50;;;;;;;;;;;;;;;26.05;27.94;100087.03;5058222;28;19974;-68
2022/06/08 08:03:19;;;;;;;;;;;;;;;26.05;28.05;100081.56;5093462;28;19923;-70
2022/06/08 08:05:44;;;;;;;;;;;;;;;26.05;28.33;100081.56;5094002;28;19916;-69
2022/06/08 08:08:10;;;;;;;;;;;;;;;26.05;28.36;100084.31;5093805;28;20416;-70
2022/06/08 08:10:35;;;;;;;;;;;;;;;26.07;28.34;100078.53;5093350;28;20014;-70
2022/06/08 08:13:01;;;;;;;;;;;;;;;26.10;28.35;100071.66;5093552;28;19916;-70
2022/06/08 08:15:26;;;;;;;;;;;;;;;26.10;28.61;100077.94;5074485;28;19920;-68
2022/06/08 08:17:51;;;;;;;;;;;;;;;26.08;28.50;100068.38;5095855;28;19924;-68
2022/06/08 08:20:17;;;;;;;;;;;;;;;26.08;28.40;100060.19;5096386;28;20003;-70
2022/06/08 08:22:42;;;;;;;;;;;;;;;26.07;28.69;100055.81;5096553;28;19916;-67
2022/06/08 08:25:09;;;;;;;;;;;;;;;25.95;29.16;100059.03;5095971;28;19920;-69
2022/06/08 08:27:34;;;;;;;;;;;;;;;26.19;28.64;100054.22;5096057;28;20038;-69
2022/06/08 08:30:00;;;;;;;;;;;;;;;26.22;28.75;100053.63;5095814;28;20355;-68
2022/06/08 08:32:25;;;;;;;;;;;;;;;26.27;28.64;100052.75;5096031;28;19963;-68
2022/06/08 08:34:50;;;;;;;;;;;;;;;26.30;28.51;100065.84;5097462;28;19917;-68
2022/06/08 08:37:16;;;;;;;;;;;;;;;26.31;28.81;100045.53;5095541;28;19955;-68
2022/06/08 08:39:41;;;;;;;;;;;;;;;26.29;28.87;100050.50;5079109;28;19916;-69
2022/06/08 08:42:21;;;;;;;;;;;;;;;26.31;28.66;100034.56;5095856;28;19962;-69
2022/06/08 08:44:47;;;;;;;;;;;;;;;26.28;28.75;100042.59;5079164;28;19920;-69
2022/06/08 08:47:31;;;;;;;;;;;;;;;26.27;29.03;100044.53;5077336;28;19923;-69
2022/06/08 08:49:57;;;;;;;;;;;;;;;26.25;29.12;100035.81;5095557;28;19920;-70
2022/06/08 08:52:24;;;;;;;;;;;;;;;26.23;29.21;100033.34;5095723;28;19920;-69
2022/06/08 08:55:00;;;;;;;;;;;;;;;26.25;29.27;100035.81;5095579;28;19916;-69
2022/06/08 08:57:44;;;;;;;;;;;;;;;26.30;29.17;100029.41;5077359;28;19927;-69
2022/06/08 09:00:25;;;;;;;;;;;;;;;26.33;28.87;100039.75;5095031;28;19916;-70
2022/06/08 09:05:35;;;;;;;;;;;;;;;26.37;29.59;100032.56;5095711;28;19939;-69
2022/06/08 09:08:00;;;;;;;;;;;;;;;26.35;29.81;100034.78;5095039;28;20363;-69
2022/06/08 09:10:25;;;;;;;;;;;;;;;26.35;29.74;100032.84;5077024;28;19920;-70
2022/06/08 09:12:51;;;;;;;;;;;;;;;26.30;30.03;100027.50;5095091;28;19923;-70
2022/06/08 09:15:17;;;;;;;;;;;;;;;26.30;30.09;100027.50;5095454;28;19916;-70
2022/06/08 09:17:56;;;;;;;;;;;;;;;26.32;30.28;100029.91;5095369;28;19928;-69
2022/06/08 09:20:23;;;;;;;;;;;;;;;26.31;30.13;100037.31;5095170;28;19916;-70
2022/06/08 09:22:49;;;;;;;;;;;;;;;26.32;30.24;100022.53;5094701;28;19916;-69
2022/06/08 09:25:40;;;;;;;;;;;;;;;26.36;30.09;100028.19;5095043;28;19959;-69
2022/06/08 09:28:21;;;;;;;;;;;;;;;26.21;30.33;100027.34;5091043;28;20019;-69
2022/06/08 09:30:47;;;;;;;;;;;;;;;26.23;30.60;100016.94;5076894;28;19920;-69
2022/06/08 09:33:12;;;;;;;;;;;;;;;26.28;30.79;100016.00;5076793;28;20006;-71
2022/06/08 09:35:40;;;;;;;;;;;;;;;26.36;30.59;100009.84;5094758;28;19916;-69
2022/06/08 09:38:11;;;;;;;;;;;;;;;26.36;30.56;100014.50;5094765;28;20020;-69
2022/06/08 09:40:49;;;;;;;;;;;;;;;26.38;30.45;100013.06;5095788;28;20040;-70
2022/06/08 09:43:33;;;;;;;;;;;;;;;26.43;30.94;100010.25;5095289;28;19916;-69
2022/06/08 09:45:58;;;;;;;;;;;;;;;26.54;30.62;100005.38;5095095;28;19954;-69
2022/06/08 09:51:26;;;;;;;;;;;;;;;26.62;30.91;99995.66;5095276;28;20023;-70
2022/06/08 09:54:11;;;;;;;;;;;;;;;26.57;30.71;100001.22;5094915;28;19920;-71
2022/06/08 09:56:36;;;;;;;;;;;;;;;26.57;30.62;100003.97;5094249;28;19944;-71
2022/06/08 09:59:27;;;;;;;;;;;;;;;26.59;30.84;99996.25;5094408;28;19966;-70
2022/06/08 10:01:55;;;;;;;;;;;;;;;26.61;30.55;99983.03;5031772;28;19921;-70
2022/06/08 10:04:20;;;;;;;;;;;;;;;26.58;31.10;99978.19;5032016;28;20007;-71
2022/06/08 10:06:46;;;;;;;;;;;;;;;26.63;31.09;99980.88;5032108;28;19959;-69
2022/06/08 10:09:16;;;;;;;;;;;;;;;26.60;30.92;99976.75;5032221;28;19917;-68
2022/06/08 10:11:47;;;;;;;;;;;;;;;26.56;31.42;99986.72;5015174;28;19921;-68
2022/06/08 10:14:15;;;;;;;;;;;;;;;26.67;31.16;99981.88;5032526;28;19952;-69
2022/06/08 10:16:44;;;;;;;;;;;;;;;26.58;31.31;99983.69;5031844;28;19944;-68
2022/06/08 10:19:10;;;;;;;;;;;;;;;26.53;31.60;99986.53;5031830;28;19917;-69
2022/06/08 10:21:38;;;;;;;;;;;;;;;26.52;31.75;99988.44;5015838;28;19978;-69
2022/06/08 10:24:11;;;;;;;;;;;;;;;26.54;31.79;99991.66;5032237;28;19917;-68
2022/06/08 10:26:38;;;;;;;;;;;;;;;26.53;32.01;99992.00;5014976;28;19921;-67
2022/06/08 10:29:22;;;;;;;;;;;;;;;26.58;32.03;99983.69;5015035;28;19917;-69
2022/06/08 10:32:06;;;;;;;;;;;;;;;26.62;32.04;99984.72;5031887;28;19917;-68
2022/06/08 10:34:32;;;;;;;;;;;;;;;26.58;31.84;99981.75;5031339;28;20003;-68
2022/06/08 10:36:58;;;;;;;;;;;;;;;26.58;32.15;99980.94;5015496;28;20036;-68
2022/06/08 10:39:24;;;;;;;;;;;;;;;26.54;32.61;99982.66;5081625;28;20015;-69
2022/06/08 10:44:52;;;;;;;;;;;;;;;26.49;32.68;99980.84;5094472;28;20385;-70
2022/06/08 10:47:25;;;;;;;;;;;;;;;26.47;32.94;99963.88;5094379;28;19916;-68
2022/06/08 10:49:52;;;;;;;;;;;;;;;26.50;32.97;99982.44;5094660;28;19926;-69
2022/06/08 10:52:20;;;;;;;;;;;;;;;26.53;32.93;99967.34;5094774;28;19917;-69
2022/06/08 10:54:55;;;;;;;;;;;;;;;26.56;32.86;99969.44;5075209;28;20010;-69
2022/06/08 10:57:44;;;;;;;;;;;;;;;26.54;33.06;99968.94;5093761;28;19984;-68
2022/06/08 11:00:23;;;;;;;;;;;;;;;26.48;33.34;99961.97;5075954;28;20042;-68
2022/06/08 11:02:51;;;;;;;;;;;;;;;26.49;33.66;99967.13;5093972;28;19924;-69
2022/06/08 11:05:26;;;;;;;;;;;;;;;26.50;34.00;99962.47;5093413;28;19961;-69
2022/06/08 11:08:12;;;;;;;;;;;;;;;26.46;33.95;99955.94;5093633;28;20355;-69
2022/06/08 11:10:51;;;;;;;;;;;;;;;26.47;33.62;99952.91;5093542;28;19973;-68
2022/06/08 11:13:23;;;;;;;;;;;;;;;26.47;33.25;99952.91;5093667;28;20351;-69
2022/06/08 11:15:50;;;;;;;;;;;;;;;26.43;33.61;99955.44;5094272;28;19924;-69
2022/06/08 11:18:17;;;;;;;;;;;;;;;26.43;33.56;99943.69;5075327;28;20304;-68
2022/06/08 11:20:47;;;;;;;;;;;;;;;26.45;33.83;99948.88;5093277;28;20336;-68
2022/06/08 11:23:12;;;;;;;;;;;;;;;26.47;33.71;99938.41;5075817;28;19920;-68
2022/06/08 11:25:49;;;;;;;;;;;;;;;26.45;33.93;99951.59;5092876;28;20011;-69
2022/06/08 11:28:24;;;;;;;;;;;;;;;26.42;33.91;99947.53;5092665;28;19932;-68
2022/06/08 11:30:49;;;;;;;;;;;;;;;26.34;34.14;99940.84;5092711;28;19916;-69
2022/06/08 11:33:15;;;;;;;;;;;;;;;26.42;34.37;99937.41;5093777;28;19924;-68
2022/06/08 11:35:46;;;;;;;;;;;;;;;26.41;34.51;99938.50;5077535;28;19951;-68
2022/06/08 11:38:16;;;;;;;;;;;;;;;26.38;34.26;99930.88;5055324;28;19917;-68
2022/06/08 11:40:41;;;;;;;;;;;;;;;26.40;34.69;99933.31;5072488;28;19917;-69
2022/06/08 11:43:06;;;;;;;;;;;;;;;26.41;34.53;99932.22;5072699;28;20374;-68
2022/06/08 11:45:47;;;;;;;;;;;;;;;26.42;34.76;99934.66;5072680;28;19935;-69
2022/06/08 11:48:13;;;;;;;;;;;;;;;26.41;34.48;99929.47;5054434;28;20346;-69
2022/06/08 11:50:44;;;;;;;;;;;;;;;26.37;34.33;99933.94;5072552;28;19916;-69
2022/06/08 11:53:20;;;;;;;;;;;;;;;26.34;35.31;99924.41;5076293;28;19924;-69
2022/06/08 11:55:52;;;;;;;;;;;;;;;26.39;35.60;99923.50;5076287;28;19923;-70
2022/06/08 11:58:20;;;;;;;;;;;;;;;26.39;35.33;99924.31;5075876;28;19917;-69
2022/06/08 12:00:46;;;;;;;;;;;;;;;26.42;35.43;99925.59;5058298;28;19916;-70
2022/06/08 12:03:16;;;;;;;;;;;;;;;26.41;35.41;99924.81;5076782;28;20248;-69
2022/06/08 12:05:42;;;;;;;;;;;;;;;26.39;35.53;99924.31;5076017;28;20015;-68
2022/06/08 12:08:12;;;;;;;;;;;;;;;26.41;35.55;99924.00;5076135;28;19978;-69
2022/06/08 12:10:37;;;;;;;;;;;;;;;26.41;35.63;99924.00;5075319;28;20282;-68
2022/06/08 12:13:03;;;;;;;;;;;;;;;26.39;35.56;99923.50;5058105;28;19920;-69
2022/06/08 12:15:43;;;;;;;;;;;;;;;26.39;35.76;99920.75;5057987;28;20281;-68
2022/06/08 12:18:19;;;;;;;;;;;;;;;26.39;35.83;99918.81;5075499;28;19947;-68
2022/06/08 12:20:44;;;;;;;;;;;;;;;26.40;35.43;99919.63;5057823;28;19924;-68
2022/06/08 12:23:10;;;;;;;;;;;;;;;26.38;35.70;99919.94;5075800;28;19916;-69
2022/06/08 12:25:35;;;;;;;;;;;;;;;26.37;35.50;99914.75;5085462;28;19961;-67
2022/06/08 12:28:03;;;;;;;;;;;;;;;26.39;36.00;99913.34;5096143;28;19916;-69
2022/06/08 12:30:29;;;;;;;;;;;;;;;26.36;36.21;99916.69;5096058;28;20060;-68
2022/06/08 12:33:01;;;;;;;;;;;;;;;26.36;35.88;99911.22;5095645;28;19916;-68
2022/06/08 12:35:26;;;;;;;;;;;;;;;26.38;35.97;99906.22;5095971;28;19939;-69
2022/06/08 12:38:03;;;;;;;;;;;;;;;26.39;35.83;99904.31;5096911;28;19962;-69
2022/06/08 12:40:30;;;;;;;;;;;;;;;26.37;35.98;99901.88;5098711;28;19916;-69
2022/06/08 12:42:55;;;;;;;;;;;;;;;26.36;36.54;99896.72;5096967;28;19931;-69
2022/06/08 12:45:26;;;;;;;;;;;;;;;26.37;36.57;99893.66;5096190;28;19916;-68
2022/06/08 12:47:52;;;;;;;;;;;;;;;26.35;36.58;99898.63;5096400;28;20286;-69
2022/06/08 12:50:21;;;;;;;;;;;;;;;26.35;36.50;99898.63;5096716;28;19916;-68
2022/06/08 12:52:46;;;;;;;;;;;;;;;26.32;36.77;99892.94;5095713;28;19916;-68
2022/06/08 12:55:16;;;;;;;;;;;;;;;26.34;36.86;99888.78;5096172;28;19931;-69